sensor_id;sensor_type;location;lat;lon;timestamp;P1;durP1;ratioP1;P2;durP2;ratioP2
59689;SDS011;45557;50.298;18.930;2022-07-06T00:02:11;20.00;;;14.90;;
59689;SDS011;45557;50.298;18.930;2022-07-06T00:08:02;17.60;;;13.20;;
59689;SDS011;45557;50.298;18.930;2022-07-06T00:13:51;21.50;;;14.90;;
59689;SDS011;45557;50.298;18.930;2022-07-06T00:19:34;19.20;;;13.70;;
59689;SDS011;45557;50.298;18.930;2022-07-06T00:25:32;20.10;;;14.70;;
59689;SDS011;45557;50.298;18.930;2022-07-06T00:32:02;22.90;;;18.00;;
59689;SDS011;45557;50.298;18.930;2022-07-06T00:37:47;20.80;;;15.80;;
59689;SDS011;45557;50.298;18.930;2022-07-06T00:49:10;21.80;;;16.90;;
59689;SDS011;45557;50.298;18.930;2022-07-06T01:00:20;22.50;;;17.40;;
59689;SDS011;45557;50.298;18.930;2022-07-06T01:06:00;17.80;;;13.70;;
59689;SDS011;45557;50.298;18.930;2022-07-06T01:11:42;20.90;;;17.00;;
59689;SDS011;45557;50.298;18.930;2022-07-06T01:17:15;17.50;;;14.90;;
59689;SDS011;45557;50.298;18.930;2022-07-06T05:52:55;22.40;;;17.40;;
59689;SDS011;45557;50.298;18.930;2022-07-06T06:16:45;25.00;;;19.20;;
59689;SDS011;45557;50.298;18.930;2022-07-06T06:22:07;26.70;;;19.90;;
59689;SDS011;45557;50.298;18.930;2022-07-06T06:42:58;16.70;;;14.10;;
59689;SDS011;45557;50.298;18.930;2022-07-06T06:48:35;13.30;;;10.80;;
59689;SDS011;45557;50.298;18.930;2022-07-06T07:18:48;9.50;;;8.30;;
59689;SDS011;45557;50.298;18.930;2022-07-06T07:24:44;12.50;;;9.70;;
59689;SDS011;45557;50.298;18.930;2022-07-06T07:30:29;14.40;;;12.90;;
59689;SDS011;45557;50.298;18.930;2022-07-06T07:36:03;16.50;;;14.80;;
59689;SDS011;45557;50.298;18.930;2022-07-06T07:41:28;19.20;;;15.40;;
59689;SDS011;45557;50.298;18.930;2022-07-06T07:46:50;12.90;;;11.50;;
59689;SDS011;45557;50.298;18.930;2022-07-06T07:52:14;14.00;;;12.30;;
59689;SDS011;45557;50.298;18.930;2022-07-06T07:57:37;12.30;;;11.00;;
59689;SDS011;45557;50.298;18.930;2022-07-06T08:03:07;11.40;;;8.70;;
59689;SDS011;45557;50.298;18.930;2022-07-06T08:08:30;8.80;;;6.90;;
59689;SDS011;45557;50.298;18.930;2022-07-06T08:13:52;7.60;;;5.40;;
59689;SDS011;45557;50.298;18.930;2022-07-06T08:19:14;6.20;;;4.80;;
59689;SDS011;45557;50.298;18.930;2022-07-06T08:24:38;7.30;;;4.40;;
59689;SDS011;45557;50.298;18.930;2022-07-06T08:30:00;6.40;;;4.40;;
59689;SDS011;45557;50.298;18.930;2022-07-06T08:35:22;5.00;;;3.10;;
59689;SDS011;45557;50.298;18.930;2022-07-06T08:40:46;4.70;;;3.20;;
59689;SDS011;45557;50.298;18.930;2022-07-06T08:46:10;6.00;;;4.50;;
59689;SDS011;45557;50.298;18.930;2022-07-06T08:51:35;3.30;;;2.30;;
59689;SDS011;45557;50.298;18.930;2022-07-06T08:56:58;6.90;;;3.10;;
59689;SDS011;45557;50.298;18.930;2022-07-06T09:02:33;4.60;;;3.00;;
59689;SDS011;45557;50.298;18.930;2022-07-06T09:08:16;4.80;;;3.20;;
59689;SDS011;45557;50.298;18.930;2022-07-06T09:20:18;6.00;;;3.20;;
59689;SDS011;45557;50.298;18.930;2022-07-06T09:26:34;6.90;;;3.80;;
59689;SDS011;45557;50.298;18.930;2022-07-06T09:32:46;4.40;;;3.20;;
59689;SDS011;45557;50.298;18.930;2022-07-06T09:38:21;5.40;;;3.60;;
59689;SDS011;45557;50.298;18.930;2022-07-06T09:43:59;3.10;;;2.20;;
59689;SDS011;45557;50.298;18.930;2022-07-06T09:56:06;4.00;;;2.30;;
59689;SDS011;45557;50.298;18.930;2022-07-06T10:03:00;6.00;;;4.00;;
59689;SDS011;45557;50.298;18.930;2022-07-06T10:09:53;4.60;;;3.00;;
59689;SDS011;45557;50.298;18.930;2022-07-06T10:16:40;6.20;;;3.30;;
59689;SDS011;45557;50.298;18.930;2022-07-06T10:23:34;3.90;;;2.40;;
59689;SDS011;45557;50.298;18.930;2022-07-06T10:30:32;4.20;;;2.50;;
59689;SDS011;45557;50.298;18.930;2022-07-06T10:37:34;5.80;;;2.70;;
59689;SDS011;45557;50.298;18.930;2022-07-06T10:44:26;3.20;;;2.20;;
59689;SDS011;45557;50.298;18.930;2022-07-06T10:51:23;2.50;;;1.80;;
59689;SDS011;45557;50.298;18.930;2022-07-06T11:05:42;2.60;;;1.90;;
59689;SDS011;45557;50.298;18.930;2022-07-06T11:12:31;3.40;;;2.30;;
59689;SDS011;45557;50.298;18.930;2022-07-06T11:19:48;4.60;;;2.10;;
59689;SDS011;45557;50.298;18.930;2022-07-06T11:26:44;3.30;;;2.30;;
59689;SDS011;45557;50.298;18.930;2022-07-06T11:33:41;3.20;;;2.00;;
59689;SDS011;45557;50.298;18.930;2022-07-06T11:40:27;2.50;;;2.00;;
59689;SDS011;45557;50.298;18.930;2022-07-06T11:47:39;4.40;;;2.60;;
59689;SDS011;45557;50.298;18.930;2022-07-06T12:00:21;7.00;;;2.80;;
59689;SDS011;45557;50.298;18.930;2022-07-06T12:21:51;3.30;;;2.20;;
59689;SDS011;45557;50.298;18.930;2022-07-06T12:28:54;4.40;;;2.20;;
59689;SDS011;45557;50.298;18.930;2022-07-06T12:35:56;3.40;;;2.30;;
59689;SDS011;45557;50.298;18.930;2022-07-06T12:50:04;5.00;;;2.70;;
59689;SDS011;45557;50.298;18.930;2022-07-06T13:03:52;3.00;;;1.90;;
59689;SDS011;45557;50.298;18.930;2022-07-06T13:09:29;5.50;;;2.00;;
59689;SDS011;45557;50.298;18.930;2022-07-06T13:16:21;3.30;;;2.50;;
59689;SDS011;45557;50.298;18.930;2022-07-06T13:28:27;3.00;;;1.90;;
59689;SDS011;45557;50.298;18.930;2022-07-06T13:34:48;3.00;;;2.10;;
59689;SDS011;45557;50.298;18.930;2022-07-06T13:40:57;4.00;;;2.30;;
59689;SDS011;45557;50.298;18.930;2022-07-06T13:46:30;5.00;;;2.20;;
59689;SDS011;45557;50.298;18.930;2022-07-06T13:52:34;3.70;;;2.50;;
59689;SDS011;45557;50.298;18.930;2022-07-06T13:58:12;3.40;;;1.70;;
59689;SDS011;45557;50.298;18.930;2022-07-06T14:04:21;3.20;;;1.80;;
59689;SDS011;45557;50.298;18.930;2022-07-06T14:10:08;2.90;;;1.80;;
59689;SDS011;45557;50.298;18.930;2022-07-06T14:16:04;3.10;;;1.70;;
59689;SDS011;45557;50.298;18.930;2022-07-06T14:22:50;4.10;;;2.00;;
59689;SDS011;45557;50.298;18.930;2022-07-06T14:34:47;2.60;;;1.80;;
59689;SDS011;45557;50.298;18.930;2022-07-06T14:46:49;2.70;;;1.80;;
59689;SDS011;45557;50.298;18.930;2022-07-06T14:59:23;3.60;;;1.60;;
59689;SDS011;45557;50.298;18.930;2022-07-06T15:05:16;6.50;;;2.00;;
59689;SDS011;45557;50.298;18.930;2022-07-06T15:17:41;6.10;;;2.10;;
59689;SDS011;45557;50.298;18.930;2022-07-06T15:23:26;4.40;;;1.70;;
59689;SDS011;45557;50.298;18.930;2022-07-06T15:28:53;3.40;;;1.70;;
59689;SDS011;45557;50.298;18.930;2022-07-06T15:34:56;4.30;;;2.20;;
59689;SDS011;45557;50.298;18.930;2022-07-06T15:41:41;2.80;;;2.10;;
59689;SDS011;45557;50.298;18.930;2022-07-06T15:48:29;4.10;;;1.80;;
59689;SDS011;45557;50.298;18.930;2022-07-06T15:55:26;3.10;;;1.60;;
59689;SDS011;45557;50.298;18.930;2022-07-06T16:08:28;4.20;;;1.80;;
59689;SDS011;45557;50.298;18.930;2022-07-06T16:15:24;3.10;;;1.50;;
59689;SDS011;45557;50.298;18.930;2022-07-06T17:28:54;3.10;;;1.60;;
59689;SDS011;45557;50.298;18.930;2022-07-06T17:35:31;2.40;;;1.30;;
59689;SDS011;45557;50.298;18.930;2022-07-06T17:41:59;2.90;;;1.30;;
59689;SDS011;45557;50.298;18.930;2022-07-06T17:48:21;2.90;;;1.50;;
59689;SDS011;45557;50.298;18.930;2022-07-06T17:55:16;3.30;;;1.70;;
59689;SDS011;45557;50.298;18.930;2022-07-06T18:02:08;3.50;;;1.90;;
59689;SDS011;45557;50.298;18.930;2022-07-06T19:13:56;7.80;;;2.70;;
59689;SDS011;45557;50.298;18.930;2022-07-06T19:20:39;12.40;;;6.90;;
59689;SDS011;45557;50.298;18.930;2022-07-06T19:27:23;10.90;;;5.50;;
59689;SDS011;45557;50.298;18.930;2022-07-06T19:34:12;7.60;;;4.00;;
59689;SDS011;45557;50.298;18.930;2022-07-06T19:41:05;7.20;;;3.00;;
59689;SDS011;45557;50.298;18.930;2022-07-06T19:54:45;24.30;;;19.50;;
59689;SDS011;45557;50.298;18.930;2022-07-06T20:01:35;44.40;;;39.40;;
59689;SDS011;45557;50.298;18.930;2022-07-06T20:08:18;25.00;;;20.00;;
59689;SDS011;45557;50.298;18.930;2022-07-06T20:15:02;9.50;;;6.40;;
59689;SDS011;45557;50.298;18.930;2022-07-06T20:21:44;10.70;;;6.90;;
59689;SDS011;45557;50.298;18.930;2022-07-06T20:28:39;9.70;;;7.90;;
59689;SDS011;45557;50.298;18.930;2022-07-06T20:35:22;8.60;;;5.80;;
59689;SDS011;45557;50.298;18.930;2022-07-06T20:42:08;7.60;;;4.60;;
59689;SDS011;45557;50.298;18.930;2022-07-06T21:06:22;16.50;;;10.30;;
59689;SDS011;45557;50.298;18.930;2022-07-06T21:24:41;10.40;;;5.40;;
59689;SDS011;45557;50.298;18.930;2022-07-06T21:30:39;10.10;;;5.00;;
59689;SDS011;45557;50.298;18.930;2022-07-06T21:36:35;10.10;;;5.80;;
59689;SDS011;45557;50.298;18.930;2022-07-06T22:01:23;9.10;;;6.30;;
59689;SDS011;45557;50.298;18.930;2022-07-06T22:13:46;10.30;;;6.20;;
59689;SDS011;45557;50.298;18.930;2022-07-06T22:32:19;9.80;;;6.70;;
59689;SDS011;45557;50.298;18.930;2022-07-06T22:38:47;8.30;;;5.00;;
59689;SDS011;45557;50.298;18.930;2022-07-06T22:44:41;8.50;;;5.40;;
59689;SDS011;45557;50.298;18.930;2022-07-06T22:50:48;7.80;;;5.10;;
59689;SDS011;45557;50.298;18.930;2022-07-06T22:56:41;8.70;;;5.30;;
59689;SDS011;45557;50.298;18.930;2022-07-06T23:15:11;9.60;;;5.30;;
59689;SDS011;45557;50.298;18.930;2022-07-06T23:22:00;9.10;;;5.50;;
59689;SDS011;45557;50.298;18.930;2022-07-06T23:28:35;9.50;;;5.00;;
59689;SDS011;45557;50.298;18.930;2022-07-06T23:35:19;11.40;;;7.30;;
59689;SDS011;45557;50.298;18.930;2022-07-06T23:42:04;12.50;;;7.70;;
59689;SDS011;45557;50.298;18.930;2022-07-06T23:48:09;10.00;;;6.80;;
59689;SDS011;45557;50.298;18.930;2022-07-06T23:55:10;10.00;;;7.10;;
